Latest Weather Observations for Wattamolla

IDN60801

Issued at 9:32 pm EDT Monday 23 January 2017 (issued every 30 minutes, with the page automatically refreshed every 10 minutes)

About weather observations | Map of weather stations | Latest weather observations for NSW | Other Formats
Station Details ID: 066208 Name: WATTAMOLLA AWS Lat: -34.14 Lon: 151.12 Height: 44.0 m
Data from the previous 72 hours. | See also: Recent months for locations in New South Wales
Date/Time
EDT
Temp
°C
App
Temp
°C
Dew
Point
°C
Rel
Hum
%
Delta-T
°C
Wind Press
QNH
hPa
Press
MSL
hPa
Rain since
9am
mm
Dir  Spd
km/h
Gust
km/h
Spd
kts
Gust
kts
23/09:30pm - - - - - N 32 43 17 23 - - -
23/09:00pm - - - - - N 35 46 19 25 - - -
23/08:30pm - - - - - N 32 48 17 26 - - -
23/08:00pm - - - - - N 37 54 20 29 - - -
23/07:30pm - - - - - N 41 59 22 32 - - -
23/07:01pm - - - - - N 41 61 22 33 - - -
23/07:00pm - - - - - N 41 56 22 30 - - -
23/06:30pm - - - - - NNE 37 56 20 30 - - -
23/06:10pm - - - - - N 43 63 23 34 - - -
23/06:00pm - - - - - NNE 37 50 20 27 - - -
23/05:30pm - - - - - NNE 35 52 19 28 - - -
23/05:00pm - - - - - NNE 39 52 21 28 - - -
23/04:30pm - - - - - NNE 32 50 17 27 - - -
23/04:10pm - - - - - NNE 30 48 16 26 - - -
23/04:00pm - - - - - NNE 33 48 18 26 - - -
23/03:48pm - - - - - NNE 32 52 17 28 - - -
23/03:30pm - - - - - NNE 32 46 17 25 - - -
23/03:00pm - - - - - NNE 28 39 15 21 - - -
23/02:30pm - - - - - NE 28 39 15 21 - - -
23/02:00pm - - - - - NNE 24 33 13 18 - - -
23/01:30pm - - - - - NE 28 39 15 21 - - -
23/01:00pm - - - - - NE 28 35 15 19 - - -
23/12:30pm - - - - - NE 28 39 15 21 - - -
23/12:00pm - - - - - NE 24 35 13 19 - - -
23/11:30am - - - - - NE 24 35 13 19 - - -
23/11:00am - - - - - NE 24 33 13 18 - - -
23/10:30am - - - - - N 15 26 8 14 - - -
23/10:00am - - - - - N 19 28 10 15 - - -
23/09:30am - - - - - N 22 33 12 18 - - -
23/09:00am - - - - - N 20 30 11 16 - - -
23/08:30am - - - - - NNE 20 28 11 15 - - -
23/08:00am - - - - - N 20 28 11 15 - - -
23/07:30am - - - - - N 17 24 9 13 - - -
23/07:00am - - - - - N 13 17 7 9 - - -
23/06:30am - - - - - N 19 28 10 15 - - -
23/06:00am - - - - - N 19 26 10 14 - - -
23/05:30am - - - - - N 20 26 11 14 - - -
23/05:00am - - - - - N 19 24 10 13 - - -
23/04:30am - - - - - N 22 30 12 16 - - -
23/04:00am - - - - - N 17 24 9 13 - - -
23/03:30am - - - - - N 20 32 11 17 - - -
23/03:00am - - - - - N 17 26 9 14 - - -
23/02:30am - - - - - NNE 17 22 9 12 - - -
23/02:00am - - - - - NNE 17 28 9 15 - - -
23/01:30am - - - - - N 17 24 9 13 - - -
23/01:00am - - - - - N 20 28 11 15 - - -
23/12:30am - - - - - N 20 30 11 16 - - -
23/12:00am - - - - - N 20 30 11 16 - - -
 
Date/Time
EDT
Temp
°C
App
Temp
°C
Dew
Point
°C
Rel
Hum
%
Delta-T
°C
Wind Press
QNH
hPa
Press
MSL
hPa
Rain since
9am
mm
Dir  Spd
km/h
Gust
km/h
Spd
kts
Gust
kts
22/11:30pm - - - - - N 19 28 10 15 - - -
22/11:00pm - - - - - N 20 35 11 19 - - -
22/10:30pm - - - - - N 20 30 11 16 - - -
22/10:00pm - - - - - N 22 35 12 19 - - -
22/09:30pm - - - - - N 22 30 12 16 - - -
22/09:00pm - - - - - NNE 22 30 12 16 - - -
22/08:30pm - - - - - NNE 24 33 13 18 - - -
22/08:00pm - - - - - NNE 22 33 12 18 - - -
22/07:30pm - - - - - NNE 22 33 12 18 - - -
22/07:00pm - - - - - NNE 19 28 10 15 - - -
22/06:30pm - - - - - NE 20 30 11 16 - - -
22/06:00pm - - - - - NE 17 28 9 15 - - -
22/05:30pm - - - - - NE 17 26 9 14 - - -
22/05:00pm - - - - - NE 19 30 10 16 - - -
22/04:30pm - - - - - NE 20 28 11 15 - - -
22/04:00pm - - - - - ENE 17 24 9 13 - - -
22/03:30pm - - - - - ENE 17 22 9 12 - - -
22/03:00pm - - - - - ENE 17 22 9 12 - - -
22/02:30pm - - - - - ENE 19 22 10 12 - - -
22/02:00pm - - - - - ENE 17 20 9 11 - - -
22/01:30pm - - - - - E 13 22 7 12 - - -
22/01:00pm - - - - - E 13 19 7 10 - - -
22/12:30pm - - - - - ESE 13 17 7 9 - - -
22/12:00pm - - - - - SE 15 20 8 11 - - -
22/11:30am - - - - - SE 15 19 8 10 - - -
22/11:00am - - - - - SE 13 17 7 9 - - -
22/10:30am - - - - - SSE 13 15 7 8 - - -
22/10:00am - - - - - SSE 13 15 7 8 - - -
22/09:30am - - - - - SSE 15 19 8 10 - - -
22/09:00am - - - - - S 17 19 9 10 - - -
22/08:30am - - - - - S 17 19 9 10 - - -
22/08:00am - - - - - S 15 19 8 10 - - -
22/07:30am - - - - - S 17 19 9 10 - - -
22/07:00am - - - - - S 17 20 9 11 - - -
22/06:30am - - - - - S 17 19 9 10 - - -
22/06:00am - - - - - S 17 20 9 11 - - -
22/05:30am - - - - - S 20 26 11 14 - - -
22/05:00am - - - - - S 22 26 12 14 - - -
22/04:30am - - - - - SSE 22 30 12 16 - - -
22/04:00am - - - - - S 26 30 14 16 - - -
22/03:30am - - - - - S 26 32 14 17 - - -
22/03:00am - - - - - SSE 26 32 14 17 - - -
22/02:30am - - - - - SSE 28 33 15 18 - - -
22/02:00am - - - - - SSE 24 32 13 17 - - -
22/01:30am - - - - - SSE 26 33 14 18 - - -
22/01:00am - - - - - SSE 28 32 15 17 - - -
22/12:30am - - - - - SSE 26 33 14 18 - - -
22/12:00am - - - - - SSE 26 32 14 17 - - -
 
Date/Time
EDT
Temp
°C
App
Temp
°C
Dew
Point
°C
Rel
Hum
%
Delta-T
°C
Wind Press
QNH
hPa
Press
MSL
hPa
Rain since
9am
mm
Dir  Spd
km/h
Gust
km/h
Spd
kts
Gust
kts
21/11:30pm - - - - - SSE 28 35 15 19 - - -
21/11:00pm - - - - - SSE 30 35 16 19 - - -
21/10:30pm - - - - - SSE 30 37 16 20 - - -
21/10:00pm - - - - - SSE 28 35 15 19 - - -
21/09:30pm - - - - - SSE 28 37 15 20 - - -
21/09:00pm - - - - - SSE 33 41 18 22 - - -
21/08:30pm - - - - - SSE 30 39 16 21 - - -
21/08:00pm - - - - - SSE 30 39 16 21 - - -
21/07:30pm - - - - - SSE 28 35 15 19 - - -
21/07:00pm - - - - - SSE 28 35 15 19 - - -
21/06:30pm - - - - - SSE 30 37 16 20 - - -
21/06:00pm - - - - - SSE 30 37 16 20 - - -
21/05:30pm - - - - - SSE 28 35 15 19 - - -
21/05:00pm - - - - - SSE 32 39 17 21 - - -
21/04:30pm - - - - - SSE 33 44 18 24 - - -
21/04:00pm - - - - - SSE 32 41 17 22 - - -
21/03:30pm - - - - - SSE 33 44 18 24 - - -
21/03:00pm - - - - - SSE 35 46 19 25 - - -
21/02:30pm - - - - - SSE 33 46 18 25 - - -
21/02:00pm - - - - - SSE 32 41 17 22 - - -
21/01:30pm - - - - - SSE 35 44 19 24 - - -
21/01:00pm - - - - - SSE 37 44 20 24 - - -
21/12:30pm - - - - - SSE 33 41 18 22 - - -
21/12:00pm - - - - - SSE 37 44 20 24 - - -
21/11:30am - - - - - SSE 35 44 19 24 - - -
21/11:00am - - - - - S 35 41 19 22 - - -
21/10:30am - - - - - S 35 39 19 21 - - -
21/10:00am - - - - - S 37 44 20 24 - - -
21/09:30am - - - - - S 39 43 21 23 - - -
21/09:00am - - - - - S 35 41 19 22 - - -
21/08:30am - - - - - S 37 43 20 23 - - -
21/08:00am - - - - - S 39 46 21 25 - - -
21/07:30am - - - - - S 39 48 21 26 - - -
21/07:00am - - - - - S 43 54 23 29 - - -
21/06:30am - - - - - SSE 41 50 22 27 - - -
21/06:00am - - - - - S 44 52 24 28 - - -
21/05:30am - - - - - SSE 44 57 24 31 - - -
21/05:00am - - - - - SSE 46 59 25 32 - - -
21/04:30am - - - - - SSE 52 61 28 33 - - -
21/04:00am - - - - - SSE 56 65 30 35 - - -
21/03:30am - - - - - SSE 52 61 28 33 - - -
21/03:00am - - - - - S 54 63 29 34 - - -
21/02:30am - - - - - S 54 63 29 34 - - -
21/02:00am - - - - - S 56 63 30 34 - - -
21/01:30am - - - - - S 56 69 30 37 - - -
21/01:00am - - - - - S 54 65 29 35 - - -
21/12:30am - - - - - S 56 61 30 33 - - -
21/12:05am - - - - - S 50 69 27 37 - - -
21/12:00am - - - - - S 46 57 25 31 - - -
 
Date/Time
EDT
Temp
°C
App
Temp
°C
Dew
Point
°C
Rel
Hum
%
Delta-T
°C
Wind Press
QNH
hPa
Press
MSL
hPa
Rain since
9am
mm
Dir  Spd
km/h
Gust
km/h
Spd
kts
Gust
kts
20/11:56pm - - - - - S 43 56 23 30 - - -
20/11:30pm - - - - - S 35 37 19 20 - - -
20/11:00pm - - - - - S 35 39 19 21 - - -
20/10:30pm - - - - - S 43 48 23 26 - - -
20/10:00pm - - - - - S 48 59 26 32 - - -
20/09:37pm - - - - - S 61 80 33 43 - - -

Other Formats:

Comma delimited format used in spreadsheet applications
http://www.bom.gov.au/fwo/IDN60801/IDN60801.95752.axf

JavaScript Object Notation format (JSON) in row-major order
http://www.bom.gov.au/fwo/IDN60801/IDN60801.95752.json